Time;durP1;ratioP1;P1;durP2;ratioP2;P2;SDS_P1;SDS_P2;PMS_P1;PMS_P2;Temp;Humidity;BMP_temperature;BMP_pressure;BME280_temperature;BME280_humidity;BME280_pressure;Samples;Min_cycle;Max_cycle;Signal;HPM_P1;HPM_P2
2022/01/26 00:06:31;;;;;;;16.44;12.57;;;;;;;-3.45;85.59;101217.31;458402;113;923255;-70
2022/01/26 00:07:34;;;;;;;16.91;12.50;;;;;;;-3.44;85.78;101218.17;458062;113;922506;-71
2022/01/26 00:08:39;;;;;;;13.89;12.41;;;;;;;-3.43;85.68;101219.88;458508;115;923009;-71
2022/01/26 00:09:43;;;;;;;16.55;12.73;;;;;;;-3.44;85.69;101221.70;457912;113;922613;-71
2022/01/26 00:10:46;;;;;;;16.91;13.01;;;;;;;-3.45;85.69;101217.31;457725;114;922962;-70
2022/01/26 00:11:48;;;;;;;15.70;12.06;;;;;;;-3.45;85.69;101209.32;457722;114;922710;-72
2022/01/26 00:12:52;;;;;;;15.64;12.39;;;;;;;-3.46;85.57;101212.09;458329;115;922603;-70
2022/01/26 00:13:55;;;;;;;18.23;13.29;;;;;;;-3.46;85.57;101212.09;457868;114;922988;-70
2022/01/26 00:14:58;;;;;;;16.04;12.93;;;;;;;-3.46;85.72;101212.94;457661;114;930550;-69
2022/01/26 00:16:05;;;;;;;15.86;12.26;;;;;;;-3.47;85.66;101213.90;457380;114;922811;-70
2022/01/26 00:17:07;;;;;;;14.47;12.45;;;;;;;-3.46;85.65;101214.75;456763;115;923204;-71
2022/01/26 00:18:10;;;;;;;14.68;12.46;;;;;;;-3.47;85.62;101208.56;456946;113;922600;-70
2022/01/26 00:19:19;;;;;;;17.38;12.51;;;;;;;-3.48;85.59;101217.55;457233;114;922687;-70
2022/01/26 00:20:25;;;;;;;15.91;11.89;;;;;;;-3.46;85.66;101212.94;457086;115;922696;-70
2022/01/26 00:24:07;;;;;;;14.03;11.87;;;;;;;-3.41;85.59;101217.94;466449;111;930656;-70
2022/01/26 00:25:07;;;;;;;;;;;;;;;-3.38;85.56;101217.73;464583;112;922157;-70
2022/01/26 00:26:06;;;;;;;15.93;11.46;;;;;;;-3.36;85.52;101211.31;461143;112;922233;-70
2022/01/26 00:28:34;;;;;;;15.53;12.13;;;;;;;-3.36;85.54;101218.45;430932;120;923405;-72
2022/01/26 00:29:31;;;;;;;13.84;12.42;;;;;;;-3.36;85.57;101208.65;461885;112;922658;-70
2022/01/26 00:38:45;;;;;;;19.93;13.02;;;;;;;-3.31;85.78;101207.48;465590;112;922619;-71
2022/01/26 00:39:47;;;;;;;18.43;13.21;;;;;;;-3.31;85.78;101203.02;464040;111;922627;-71
2022/01/26 00:41:02;;;;;;;15.98;12.45;;;;;;;-3.31;85.89;101207.48;465179;112;922773;-70
2022/01/26 00:41:57;;;;;;;17.72;13.97;;;;;;;-3.32;85.91;101203.97;464751;112;922914;-70
2022/01/26 00:43:13;;;;;;;15.37;12.79;;;;;;;-3.31;85.86;101210.16;464730;112;922720;-71
2022/01/26 00:44:08;;;;;;;19.06;13.47;;;;;;;-3.32;85.78;101211.97;461916;112;922647;-71
2022/01/26 00:45:11;;;;;;;18.43;13.28;;;;;;;-3.32;85.74;101217.30;465418;112;922573;-70
2022/01/26 00:46:15;;;;;;;18.49;12.64;;;;;;;-3.33;85.73;101214.73;466124;112;922731;-70
2022/01/26 00:47:18;;;;;;;18.23;13.98;;;;;;;-3.34;85.60;101221.02;464139;112;922607;-71
2022/01/26 00:48:22;;;;;;;18.21;12.49;;;;;;;-3.36;85.51;101216.65;463593;112;922772;-70
2022/01/26 00:49:27;;;;;;;15.10;13.15;;;;;;;-3.39;85.48;101216.88;462259;112;922559;-71
2022/01/26 00:50:32;;;;;;;14.34;11.84;;;;;;;-3.40;85.45;101212.51;462519;111;922649;-71
2022/01/26 00:51:35;;;;;;;14.63;11.96;;;;;;;-3.39;85.47;101210.70;462635;112;930964;-70
2022/01/26 00:52:41;;;;;;;14.55;13.06;;;;;;;-3.38;85.54;101210.59;462777;112;922833;-71
2022/01/26 00:53:53;;;;;;;14.14;12.67;;;;;;;-3.37;85.48;101211.45;463722;112;922597;-71
2022/01/26 00:54:49;;;;;;;13.27;11.74;;;;;;;-3.38;85.43;101215.07;463550;112;922680;-71
2022/01/26 00:55:52;;;;;;;15.75;12.27;;;;;;;-3.38;85.30;101209.73;453137;115;922833;-71
2022/01/26 00:56:55;;;;;;;15.38;12.93;;;;;;;-3.40;85.25;101207.17;452638;115;922557;-71
2022/01/26 00:57:58;;;;;;;14.13;12.65;;;;;;;-3.41;85.29;101204.61;463335;112;930401;-71
2022/01/26 00:59:02;;;;;;;14.09;11.92;;;;;;;-3.41;85.33;101197.47;452278;115;922687;-71
2022/01/26 01:00:09;;;;;;;13.44;12.08;;;;;;;-3.38;85.47;101205.27;464088;112;922782;-70
2022/01/26 01:01:12;;;;;;;16.58;12.42;;;;;;;-3.36;85.48;101199.80;464274;112;923795;-69
2022/01/26 01:02:16;;;;;;;15.98;12.81;;;;;;;-3.34;85.43;101208.55;464810;112;922823;-70
2022/01/26 01:03:20;;;;;;;15.33;13.28;;;;;;;-3.30;85.56;101204.69;463770;112;922952;-69
2022/01/26 01:04:24;;;;;;;16.24;13.54;;;;;;;-3.29;85.56;101198.40;463689;112;930374;-69
2022/01/26 01:05:34;;;;;;;14.60;13.01;;;;;;;-3.30;85.46;101196.69;465850;112;922791;-71
2022/01/26 01:06:41;;;;;;;16.94;12.61;;;;;;;-3.30;85.42;101198.50;464880;112;923158;-71
2022/01/26 01:07:39;;;;;;;17.01;13.92;;;;;;;-3.31;85.43;101200.34;464711;112;923024;-70
2022/01/26 01:08:43;;;;;;;17.22;13.62;;;;;;;-3.31;85.36;101197.68;466143;112;922633;-70
2022/01/26 01:09:47;;;;;;;15.31;13.65;;;;;;;-3.28;85.52;101201.92;467292;112;922822;-71
2022/01/26 01:10:51;;;;;;;15.94;13.68;;;;;;;-3.25;85.62;101191.88;467296;112;922484;-70
2022/01/26 01:11:56;;;;;;;15.14;13.55;;;;;;;-3.22;85.71;101185.48;464753;112;930395;-71
2022/01/26 01:13:00;;;;;;;19.87;14.95;;;;;;;-3.21;85.69;101190.70;463463;112;930321;-71
2022/01/26 01:14:03;;;;;;;15.58;13.61;;;;;;;-3.20;85.69;101189.75;463430;111;922464;-70
2022/01/26 01:15:07;;;;;;;18.87;13.97;;;;;;;-3.19;85.66;101196.77;463153;112;930459;-70
2022/01/26 01:16:17;;;;;;;15.74;13.66;;;;;;;-3.19;85.67;101191.42;462901;112;922657;-71
2022/01/26 01:17:25;;;;;;;17.02;14.01;;;;;;;-3.19;85.64;101179.91;462988;112;922909;-70
2022/01/26 01:18:43;;;;;;;17.05;14.12;;;;;;;-3.18;85.76;101193.14;464186;111;922566;-70
2022/01/26 01:19:41;;;;;;;17.98;15.12;;;;;;;-3.17;85.76;101184.17;460949;112;922609;-70
2022/01/26 01:22:21;;;;;;;16.64;14.46;;;;;;;-3.18;85.78;101187.80;463726;112;922958;-71
2022/01/26 01:26:05;;;;;;;20.39;15.52;;;;;;;-3.22;85.66;101189.00;456968;114;923153;-71
2022/01/26 01:30:26;;;;;;;23.82;15.27;;;;;;;-3.24;85.65;101185.58;458153;114;922554;-71
2022/01/26 01:31:29;;;;;;;19.72;15.26;;;;;;;-3.26;85.56;101195.53;456948;114;923237;-69
2022/01/26 01:32:31;;;;;;;17.83;15.03;;;;;;;-3.28;85.59;101194.78;455633;114;922761;-69
2022/01/26 01:33:33;;;;;;;20.23;16.08;;;;;;;-3.28;85.63;101192.11;456835;114;922552;-71
2022/01/26 01:34:37;;;;;;;24.92;17.24;;;;;;;-3.28;85.65;101192.11;456741;114;922651;-71
2022/01/26 01:35:42;;;;;;;20.89;15.76;;;;;;;-3.26;85.65;101186.67;454970;114;922534;-71
2022/01/26 01:36:49;;;;;;;18.52;15.49;;;;;;;-3.27;85.71;101190.30;439915;118;922767;-71
2022/01/26 01:37:52;;;;;;;19.56;15.73;;;;;;;-3.25;85.73;101186.54;443327;118;922983;-72
2022/01/26 01:38:55;;;;;;;21.41;16.32;;;;;;;-3.22;85.80;101186.33;438850;118;922840;-72
2022/01/26 01:39:58;;;;;;;20.26;16.35;;;;;;;-3.22;85.75;101191.66;439655;118;930598;-69
2022/01/26 01:41:01;;;;;;;21.10;16.67;;;;;;;-3.22;85.70;101186.33;437987;120;930435;-71
2022/01/26 01:42:07;;;;;;;22.69;16.77;;;;;;;-3.19;85.79;101188.77;448221;116;922680;-69
2022/01/26 01:43:11;;;;;;;20.90;15.61;;;;;;;-3.15;85.90;101184.08;444107;117;922890;-71
2022/01/26 01:44:16;;;;;;;22.34;15.96;;;;;;;-3.13;85.92;101177.65;444551;117;923266;-71
2022/01/26 01:45:22;;;;;;;20.82;16.58;;;;;;;-3.13;85.87;101180.31;438354;118;922752;-70
2022/01/26 01:46:29;;;;;;;19.01;15.84;;;;;;;-3.12;85.82;101179.36;435994;120;922720;-70
2022/01/26 01:47:32;;;;;;;18.73;16.22;;;;;;;-3.13;85.78;101180.31;445969;117;922578;-71
2022/01/26 01:48:35;;;;;;;21.33;15.69;;;;;;;-3.15;85.62;101184.93;440128;118;923211;-71
2022/01/26 01:49:38;;;;;;;21.34;15.86;;;;;;;-3.17;85.62;101181.52;444845;118;923024;-71
2022/01/26 01:50:42;;;;;;;19.77;16.57;;;;;;;-3.19;85.62;101178.09;445981;118;922603;-71
2022/01/26 01:51:53;;;;;;;18.57;15.19;;;;;;;-3.18;85.71;101182.47;445453;118;923055;-70
2022/01/26 01:54:11;;;;;;;19.61;15.74;;;;;;;-3.00;85.95;101178.45;470296;109;947677;-70
2022/01/26 01:55:11;;;;;;;22.66;15.99;;;;;;;-3.08;85.96;101182.64;461221;112;922603;-71
2022/01/26 01:56:17;;;;;;;23.65;17.83;;;;;;;-3.07;85.95;101181.68;461616;112;924205;-72
2022/01/26 01:57:23;;;;;;;21.87;16.21;;;;;;;-3.08;85.84;101175.48;461275;112;930593;-71
2022/01/26 01:58:26;;;;;;;21.47;16.19;;;;;;;-3.11;85.70;101170.39;461774;113;922684;-71
2022/01/26 01:59:32;;;;;;;20.49;17.38;;;;;;;-3.14;85.65;101175.11;463378;113;922598;-71
2022/01/26 02:00:36;;;;;;;27.86;17.81;;;;;;;-3.18;85.55;101179.80;460674;111;922673;-70
2022/01/26 02:01:40;;;;;;;24.19;19.29;;;;;;;-3.19;85.58;101179.91;460195;114;922633;-70
2022/01/26 02:02:44;;;;;;;28.60;19.89;;;;;;;-3.21;85.62;101174.70;458213;114;922788;-69
2022/01/26 02:03:47;;;;;;;23.05;17.94;;;;;;;-3.21;85.63;101172.05;460308;111;922997;-71
2022/01/26 02:04:50;;;;;;;23.38;16.85;;;;;;;-3.21;85.60;101179.19;461455;112;922475;-69
2022/01/26 02:05:53;;;;;;;22.58;16.12;;;;;;;-3.24;85.42;101182.91;460566;112;923011;-69
2022/01/26 02:06:56;;;;;;;22.21;17.11;;;;;;;-3.28;85.38;101184.11;459139;114;922500;-70
2022/01/26 02:08:00;;;;;;;21.90;16.56;;;;;;;-3.34;85.25;101181.03;460145;112;922993;-70
2022/01/26 02:09:04;;;;;;;24.38;17.90;;;;;;;-3.38;85.24;101180.41;459072;112;923075;-69
2022/01/26 02:10:09;;;;;;;21.89;17.74;;;;;;;-3.43;85.27;101185.23;460401;112;922587;-68
2022/01/26 02:11:13;;;;;;;26.38;19.16;;;;;;;-3.44;85.30;101191.52;459502;114;923002;-70
2022/01/26 02:12:20;;;;;;;23.33;17.51;;;;;;;-3.45;85.33;101190.66;460187;112;922651;-70
2022/01/26 02:13:27;;;;;;;28.90;19.99;;;;;;;-3.47;85.27;101181.91;460347;112;923197;-70
2022/01/26 02:14:35;;;;;;;23.78;18.56;;;;;;;-3.49;85.22;101189.19;460467;112;922561;-70
2022/01/26 02:15:46;;;;;;;22.36;17.78;;;;;;;-3.50;85.16;101174.16;461222;113;922557;-69
2022/01/26 02:16:59;;;;;;;31.76;18.64;;;;;;;-3.52;85.15;101186.72;459832;111;923130;-70
2022/01/26 02:49:49;;;;;;;26.62;18.69;;;;;;;-3.52;86.09;101189.39;463457;114;922823;-70
2022/01/26 02:51:38;;;;;;;33.86;20.27;;;;;;;-3.53;85.96;101193.02;458480;114;922567;-69
2022/01/26 02:53:04;;;;;;;26.04;18.70;;;;;;;-3.52;85.97;101185.87;459369;112;923278;-70
2022/01/26 02:56:58;;;;;;;32.24;20.35;;;;;;;-3.52;85.79;101193.87;459461;112;922526;-69
2022/01/26 02:58:07;;;;;;;25.34;19.46;;;;;;;-3.53;85.81;101192.19;457556;112;922642;-69
2022/01/26 03:03:01;;;;;;;28.24;19.33;;;;;;;-3.53;85.78;101190.34;460511;113;922635;-67
2022/01/26 03:04:13;;;;;;;31.19;19.68;;;;;;;-3.51;85.72;101182.25;460312;112;923775;-68
2022/01/26 03:05:11;;;;;;;28.73;19.17;;;;;;;-3.51;85.81;101187.58;460050;113;922579;-69
2022/01/26 03:06:20;;;;;;;26.81;18.06;;;;;;;-3.51;85.74;101179.58;460645;112;923083;-69
2022/01/26 03:07:33;;;;;;;26.28;19.27;;;;;;;-3.55;85.66;101178.11;459828;114;922590;-68
2022/01/26 03:08:50;;;;;;;30.08;18.71;;;;;;;-3.56;85.62;101176.40;459359;113;922589;-70
2022/01/26 03:09:38;;;;;;;24.66;18.90;;;;;;;-3.56;85.62;101173.73;456755;112;922641;-69
2022/01/26 03:10:47;;;;;;;29.99;18.92;;;;;;;-3.57;85.55;101180.02;461169;112;922646;-69
2022/01/26 03:11:45;;;;;;;28.78;19.13;;;;;;;-3.58;85.55;101176.50;461514;113;923165;-69
2022/01/26 03:12:56;;;;;;;29.55;18.85;;;;;;;-3.56;85.60;101179.92;462694;114;922524;-70
2022/01/26 03:14:00;;;;;;;27.57;18.81;;;;;;;-3.54;85.62;101174.48;459824;112;922706;-69
2022/01/26 03:15:06;;;;;;;25.53;18.18;;;;;;;-3.52;85.64;101184.06;460799;112;922686;-69
2022/01/26 03:16:11;;;;;;;24.71;18.64;;;;;;;-3.50;85.67;101181.30;460729;112;922568;-68
2022/01/26 03:19:24;;;;;;;26.81;19.39;;;;;;;-3.42;85.72;101168.28;457944;112;923016;-69
2022/01/26 03:20:24;;;;;;;24.69;17.72;;;;;;;-3.39;85.80;101162.71;459998;111;922600;-72
2022/01/26 03:21:36;;;;;;;26.07;18.53;;;;;;;-3.36;85.82;101170.47;460346;112;922760;-70
2022/01/26 03:29:28;;;;;;;27.63;18.24;;;;;;;-3.48;85.51;101172.23;460521;111;922884;-70
2022/01/26 03:30:32;;;;;;;25.99;18.67;;;;;;;-3.49;85.62;101164.34;460438;112;922798;-69
2022/01/26 03:33:11;;;;;;;24.07;17.91;;;;;;;-3.47;85.79;101168.58;460780;114;922591;-70
2022/01/26 03:34:09;;;;;;;30.70;18.59;;;;;;;-3.43;85.95;101163.91;459376;112;922722;-70
2022/01/26 03:35:15;;;;;;;29.70;18.88;;;;;;;-3.41;85.92;101159.30;460697;113;922562;-70
2022/01/26 03:36:14;;;;;;;25.74;18.57;;;;;;;-3.41;85.88;101159.30;461706;114;922941;-67
2022/01/26 03:37:17;;;;;;;26.06;16.91;;;;;;;-3.40;85.88;101164.52;462519;112;922755;-68
2022/01/26 03:39:27;;;;;;;29.91;17.75;;;;;;;-3.41;85.69;101157.48;461163;112;922764;-69
2022/01/26 03:40:33;;;;;;;23.26;17.54;;;;;;;-3.43;85.63;101159.42;460692;112;922574;-69
2022/01/26 03:41:42;;;;;;;27.64;18.39;;;;;;;-3.46;85.52;101162.30;460135;112;922703;-70
2022/01/26 03:42:43;;;;;;;23.99;17.28;;;;;;;-3.49;85.46;101167.01;460829;112;923150;-69
2022/01/26 03:43:46;;;;;;;22.56;17.79;;;;;;;-3.52;85.39;101159.22;458880;114;922480;-69
2022/01/26 03:44:49;;;;;;;23.29;17.12;;;;;;;-3.54;85.40;101163.83;458623;113;922579;-69
2022/01/26 03:45:52;;;;;;;25.59;17.47;;;;;;;-3.56;85.32;101165.73;460514;112;923115;-70
2022/01/26 03:46:55;;;;;;;25.44;17.16;;;;;;;-3.58;85.21;101171.17;460090;112;922790;-70
2022/01/26 03:47:58;;;;;;;19.98;16.51;;;;;;;-3.60;85.24;101172.26;460106;112;922599;-69
2022/01/26 03:49:04;;;;;;;27.02;17.66;;;;;;;-3.64;85.14;101168.97;459373;114;922829;-69
2022/01/26 03:50:08;;;;;;;23.57;17.38;;;;;;;-3.65;85.17;101169.08;460493;112;922827;-70
2022/01/26 03:51:11;;;;;;;20.47;16.44;;;;;;;-3.65;85.21;101167.27;459884;113;922464;-69
2022/01/26 03:52:14;;;;;;;22.74;16.09;;;;;;;-3.64;85.24;101171.64;460814;112;930475;-70
2022/01/26 03:53:17;;;;;;;25.29;17.01;;;;;;;-3.63;85.21;101170.65;460383;112;922514;-70
2022/01/26 03:54:21;;;;;;;22.22;16.02;;;;;;;-3.64;85.13;101168.12;460439;111;922650;-69
2022/01/26 03:55:24;;;;;;;22.17;16.51;;;;;;;-3.67;84.96;101168.31;459913;112;922961;-68
2022/01/26 03:56:27;;;;;;;17.67;15.57;;;;;;;-3.72;84.94;101165.98;461238;114;922563;-70
2022/01/26 03:57:30;;;;;;;27.37;17.51;;;;;;;-3.76;84.88;101166.32;461709;112;922827;-69
2022/01/26 03:58:33;;;;;;;24.06;16.73;;;;;;;-3.79;84.93;101167.38;460609;112;922638;-69
2022/01/26 03:59:36;;;;;;;26.75;17.78;;;;;;;-3.81;84.98;101162.18;460887;112;922644;-71
2022/01/26 04:00:40;;;;;;;25.35;16.66;;;;;;;-3.82;84.97;101164.94;461621;114;922613;-70
2022/01/26 04:01:44;;;;;;;22.54;16.29;;;;;;;-3.83;84.93;101171.23;462001;112;922581;-70
2022/01/26 04:02:48;;;;;;;25.71;16.93;;;;;;;-3.84;84.93;101164.19;460706;113;922579;-69
2022/01/26 04:03:51;;;;;;;24.92;17.16;;;;;;;-3.85;84.98;101167.80;460988;113;930652;-70
2022/01/26 04:04:59;;;;;;;21.51;16.90;;;;;;;-3.85;84.98;101167.80;462633;114;930536;-69
2022/01/26 04:05:59;;;;;;;27.38;18.01;;;;;;;-3.84;85.02;101167.70;461185;112;923135;-68
2022/01/26 04:07:03;;;;;;;25.52;17.72;;;;;;;-3.82;85.10;101165.80;459862;112;922882;-69
2022/01/26 04:08:16;;;;;;;27.44;18.78;;;;;;;-3.79;85.19;101170.89;460424;112;922555;-69
2022/01/26 04:09:16;;;;;;;27.71;17.84;;;;;;;-3.75;85.16;101170.70;458317;113;930034;-68
2022/01/26 04:10:34;;;;;;;23.54;18.69;;;;;;;-3.75;85.09;101166.22;459234;113;922748;-68
2022/01/26 04:11:37;;;;;;;27.63;19.83;;;;;;;-3.74;85.06;101164.38;458441;113;922916;-71
2022/01/26 04:12:39;;;;;;;27.18;18.63;;;;;;;-3.75;85.00;101163.55;459197;112;923152;-69
2022/01/26 04:13:43;;;;;;;32.65;20.21;;;;;;;-3.75;84.97;101170.70;459994;114;922563;-70
2022/01/26 04:14:52;;;;;;;27.64;19.49;;;;;;;-3.76;84.92;101164.52;459167;112;922579;-67
2022/01/26 04:15:51;;;;;;;30.02;19.58;;;;;;;-3.74;84.93;101167.05;459708;112;922803;-69
2022/01/26 04:16:54;;;;;;;26.26;18.71;;;;;;;-3.75;84.91;101162.70;460544;113;922550;-70
2022/01/26 04:17:59;;;;;;;25.96;18.89;;;;;;;-3.77;84.89;101159.28;460716;111;922502;-72
2022/01/26 04:19:04;;;;;;;26.87;18.94;;;;;;;-3.77;84.87;101160.14;447877;115;923320;-71
2022/01/26 04:20:09;;;;;;;30.03;19.69;;;;;;;-3.75;84.87;101162.70;449203;114;923236;-71
2022/01/26 04:21:32;;;;;;;25.03;19.27;;;;;;;-3.75;84.88;101165.37;460751;112;922560;-69
2022/01/26 04:22:37;;;;;;;23.39;18.09;;;;;;;-3.74;84.99;101165.23;459392;113;922498;-67
2022/01/26 04:23:48;;;;;;;32.24;18.80;;;;;;;-3.69;85.12;101160.42;460213;112;922699;-71
2022/01/26 04:24:50;;;;;;;26.08;19.21;;;;;;;-3.65;85.17;101169.08;460313;113;922698;-66
2022/01/26 04:25:51;;;;;;;28.53;19.11;;;;;;;-3.63;85.18;101159.98;462726;114;922557;-69
2022/01/26 04:28:04;;;;;;;29.21;19.46;;;;;;;-3.62;85.02;101160.84;460572;112;930429;-67
2022/01/26 04:29:10;;;;;;;26.92;18.92;;;;;;;-3.63;84.99;101159.98;461436;113;922513;-68
2022/01/26 04:30:10;;;;;;;26.99;18.19;;;;;;;-3.63;84.95;101156.47;462198;113;922671;-68
2022/01/26 04:31:13;;;;;;;27.31;18.02;;;;;;;-3.65;84.93;101151.27;460633;112;922544;-71
2022/01/26 04:32:17;;;;;;;27.73;17.64;;;;;;;-3.65;84.90;101163.74;459508;112;922786;-71
2022/01/26 04:33:20;;;;;;;20.11;16.45;;;;;;;-3.67;84.89;101161.18;458575;114;930523;-68
2022/01/26 04:34:25;;;;;;;18.42;16.27;;;;;;;-3.69;84.79;101159.61;457953;114;922870;-70
2022/01/26 04:35:28;;;;;;;30.97;18.31;;;;;;;-3.72;84.82;101151.81;460071;112;922984;-70
2022/01/26 04:36:44;;;;;;;21.77;16.67;;;;;;;-3.74;84.81;101154.58;459617;113;923073;-69
2022/01/26 04:38:13;;;;;;;26.97;18.76;;;;;;;-3.76;84.83;101151.19;457758;113;922764;-70
2022/01/26 04:38:52;;;;;;;19.77;15.96;;;;;;;-3.77;84.84;101157.47;457481;111;923138;-70
2022/01/26 04:40:06;;;;;;;23.21;17.53;;;;;;;-3.76;84.81;101155.66;459824;112;922547;-71
2022/01/26 04:41:33;;;;;;;25.43;17.76;;;;;;;-3.77;84.85;101153.95;460381;112;922796;-66
2022/01/26 04:42:46;;;;;;;23.01;17.54;;;;;;;-3.79;84.79;101156.72;459567;113;922572;-70
2022/01/26 04:43:40;;;;;;;21.74;16.16;;;;;;;-3.81;84.83;101153.33;458118;112;922611;-71
2022/01/26 04:44:48;;;;;;;24.62;16.96;;;;;;;-3.81;84.93;101156.85;459650;113;922901;-70
2022/01/26 04:45:47;;;;;;;24.01;17.29;;;;;;;-3.78;85.02;101147.77;460453;112;922702;-70
2022/01/26 04:46:51;;;;;;;23.21;16.67;;;;;;;-3.77;85.05;101148.63;460642;112;922584;-70
2022/01/26 04:47:54;;;;;;;22.24;16.06;;;;;;;-3.77;85.04;101145.96;460803;112;922725;-70
2022/01/26 04:48:57;;;;;;;22.89;16.76;;;;;;;-3.76;85.06;101150.34;461046;113;922694;-70
2022/01/26 04:50:01;;;;;;;18.69;15.06;;;;;;;-3.77;84.97;101151.29;461470;112;922597;-69
2022/01/26 04:51:04;;;;;;;26.21;15.75;;;;;;;-3.79;84.95;101148.73;462445;113;922805;-70
2022/01/26 04:52:07;;;;;;;23.83;16.16;;;;;;;-3.80;84.98;101141.69;461533;111;930494;-69
2022/01/26 04:53:10;;;;;;;22.82;15.74;;;;;;;-3.80;85.00;101150.53;461993;112;922596;-69
2022/01/26 04:54:14;;;;;;;20.17;15.00;;;;;;;-3.81;84.95;101151.52;462267;111;922561;-70
2022/01/26 04:55:17;;;;;;;17.74;15.01;;;;;;;-3.82;84.99;101146.30;458174;113;922658;-71
2022/01/26 04:56:20;;;;;;;20.41;14.53;;;;;;;-3.84;84.92;101145.54;451673;114;931025;-71
2022/01/26 04:57:23;;;;;;;17.59;13.98;;;;;;;-3.87;84.89;101146.63;460175;112;923095;-68
2022/01/26 04:58:26;;;;;;;19.18;14.99;;;;;;;-3.87;84.90;101148.44;459793;112;922785;-70
2022/01/26 04:59:29;;;;;;;17.74;14.08;;;;;;;-3.89;84.93;101148.53;458424;113;922912;-69
2022/01/26 05:00:33;;;;;;;19.28;14.07;;;;;;;-3.88;84.94;101158.23;461481;111;923544;-70
2022/01/26 05:01:36;;;;;;;21.10;15.52;;;;;;;-3.89;84.92;101151.20;459188;114;922680;-70
2022/01/26 05:02:39;;;;;;;20.85;14.66;;;;;;;-3.91;84.85;101155.77;460423;112;922986;-71
2022/01/26 05:03:42;;;;;;;17.74;14.10;;;;;;;-3.92;84.77;101151.44;459111;114;922486;-68
2022/01/26 05:04:46;;;;;;;20.02;15.28;;;;;;;-3.93;84.78;101156.86;460714;112;923786;-70
2022/01/26 05:05:49;;;;;;;15.79;13.91;;;;;;;-3.96;84.71;101157.91;460685;112;923163;-71
2022/01/26 05:06:52;;;;;;;18.91;14.35;;;;;;;-3.99;84.69;101151.96;460197;113;930501;-70
2022/01/26 05:07:55;;;;;;;17.48;14.21;;;;;;;-4.00;84.73;101160.91;460249;112;922656;-70
2022/01/26 05:08:58;;;;;;;17.79;14.49;;;;;;;-3.98;84.75;101159.00;460481;112;922997;-70
2022/01/26 05:10:03;;;;;;;21.40;15.15;;;;;;;-3.97;84.84;101166.03;461154;114;922595;-69
2022/01/26 05:11:09;;;;;;;20.21;15.31;;;;;;;-3.96;84.92;101163.23;461856;112;923974;-71
2022/01/26 05:12:14;;;;;;;25.63;17.09;;;;;;;-3.95;84.81;101164.09;458599;112;931147;-69
2022/01/26 05:13:17;;;;;;;18.65;16.06;;;;;;;-3.95;84.76;101169.42;450928;115;923013;-69
2022/01/26 05:14:20;;;;;;;17.87;15.08;;;;;;;-3.94;84.81;101164.00;452714;114;922622;-71
2022/01/26 05:15:25;;;;;;;18.87;14.46;;;;;;;-3.94;84.83;101158.67;462637;112;922621;-69
2022/01/26 05:16:29;;;;;;;21.29;15.48;;;;;;;-3.93;84.82;101164.85;461522;112;923433;-69
2022/01/26 05:17:32;;;;;;;16.00;14.12;;;;;;;-3.90;84.95;101162.81;460578;112;922965;-69
2022/01/26 05:18:36;;;;;;;18.29;14.79;;;;;;;-3.86;85.06;101164.29;458657;111;922554;-70
2022/01/26 05:19:39;;;;;;;22.07;15.89;;;;;;;-3.81;85.22;101163.98;458746;114;922950;-69
2022/01/26 05:20:42;;;;;;;19.23;16.67;;;;;;;-3.74;85.35;101161.72;458919;112;930899;-70
2022/01/26 05:21:46;;;;;;;20.56;16.11;;;;;;;-3.67;85.52;101157.66;460530;112;922560;-71
2022/01/26 05:22:49;;;;;;;20.84;16.12;;;;;;;-3.62;85.46;101166.17;459139;113;922494;-68
2022/01/26 05:23:52;;;;;;;17.99;15.36;;;;;;;-3.60;85.45;101166.92;460298;113;922898;-68
2022/01/26 05:24:55;;;;;;;18.96;15.54;;;;;;;-3.58;85.44;101157.84;460580;112;922629;-70
2022/01/26 05:25:58;;;;;;;20.70;16.74;;;;;;;-3.57;85.35;101159.55;459800;111;922813;-70
2022/01/26 05:27:02;;;;;;;25.64;15.73;;;;;;;-3.57;85.27;101156.89;460183;112;922678;-68
2022/01/26 05:28:05;;;;;;;18.35;15.21;;;;;;;-3.57;85.20;101158.70;460261;112;922491;-72
2022/01/26 05:29:08;;;;;;;18.98;15.66;;;;;;;-3.59;85.15;101166.83;460380;112;922547;-69
2022/01/26 05:30:12;;;;;;;21.17;16.44;;;;;;;-3.61;85.01;101165.22;460680;112;923054;-71
2022/01/26 05:31:15;;;;;;;22.40;16.38;;;;;;;-3.64;84.95;101166.31;460250;114;922609;-71
2022/01/26 05:32:19;;;;;;;20.59;16.27;;;;;;;-3.66;84.93;101162.89;460125;112;930572;-69
2022/01/26 05:33:23;;;;;;;18.86;16.11;;;;;;;-3.66;85.02;101164.70;460596;113;922717;-71
2022/01/26 05:34:26;;;;;;;21.58;17.45;;;;;;;-3.66;85.07;101165.55;460773;112;930440;-70
2022/01/26 05:35:30;;;;;;;23.05;17.82;;;;;;;-3.63;85.13;101170.65;461417;112;922944;-69
2022/01/26 05:36:33;;;;;;;19.38;16.66;;;;;;;-3.59;85.19;101171.30;460929;112;922814;-70
2022/01/26 05:37:37;;;;;;;18.86;16.87;;;;;;;-3.57;85.22;101172.02;461080;112;922631;-69
2022/01/26 05:38:40;;;;;;;20.68;16.27;;;;;;;-3.57;85.09;101170.21;461537;114;922583;-67
2022/01/26 05:39:43;;;;;;;21.79;17.59;;;;;;;-3.57;85.06;101172.87;463421;114;922715;-71
2022/01/26 05:40:46;;;;;;;18.83;16.33;;;;;;;-3.55;85.02;101180.77;462219;112;922650;-70
2022/01/26 05:41:49;;;;;;;24.29;17.31;;;;;;;-3.53;85.14;101181.53;460198;112;923189;-69
2022/01/26 05:42:52;;;;;;;18.47;16.67;;;;;;;-3.52;85.18;101176.06;459004;112;922693;-69
2022/01/26 05:43:55;;;;;;;19.69;16.87;;;;;;;-3.48;85.20;101171.38;458608;114;922587;-69
2022/01/26 05:45:03;;;;;;;19.16;15.93;;;;;;;-3.45;85.28;101173.81;459415;112;923373;-70
2022/01/26 05:46:09;;;;;;;19.09;15.99;;;;;;;-3.43;85.28;101175.42;459775;112;923009;-70
2022/01/26 05:47:15;;;;;;;19.31;16.03;;;;;;;-3.41;85.24;101173.47;459452;112;922588;-69
2022/01/26 05:48:15;;;;;;;21.37;17.33;;;;;;;-3.39;85.21;101171.56;459248;113;923154;-67
2022/01/26 05:49:18;;;;;;;18.24;16.39;;;;;;;-3.37;85.14;101176.80;458923;112;922614;-70
2022/01/26 05:50:23;;;;;;;21.57;15.88;;;;;;;-3.38;85.15;101167.94;459263;114;922965;-68
2022/01/26 05:51:30;;;;;;;23.94;16.81;;;;;;;-3.36;85.16;101167.80;459822;114;922553;-72
2022/01/26 05:52:31;;;;;;;22.97;16.51;;;;;;;-3.32;85.23;101171.97;459484;112;922840;-71
2022/01/26 05:53:35;;;;;;;21.87;16.67;;;;;;;-3.28;85.36;101172.59;460290;112;922583;-71
2022/01/26 05:54:38;;;;;;;22.44;17.06;;;;;;;-3.27;85.34;101164.48;460310;112;922926;-67
2022/01/26 05:55:42;;;;;;;20.89;17.34;;;;;;;-3.26;85.31;101171.53;460877;113;922611;-68
2022/01/26 05:56:47;;;;;;;19.76;16.61;;;;;;;-3.25;85.26;101164.38;461421;112;922619;-71
2022/01/26 05:57:50;;;;;;;20.35;16.28;;;;;;;-3.26;85.24;101163.53;460183;112;925650;-71
2022/01/26 05:58:54;;;;;;;19.26;15.12;;;;;;;-3.24;85.33;101161.58;461754;114;922688;-70
2022/01/26 05:59:57;;;;;;;21.57;16.39;;;;;;;-3.24;85.27;101163.39;462270;112;923372;-69
2022/01/26 06:01:01;;;;;;;20.04;16.39;;;;;;;-3.25;85.25;101162.54;461004;112;922965;-67
2022/01/26 06:02:05;;;;;;;19.65;16.18;;;;;;;-3.22;85.38;101172.14;460762;112;923665;-69
2022/01/26 06:03:09;;;;;;;18.72;15.22;;;;;;;-3.22;85.34;101164.14;462493;114;922657;-71
2022/01/26 06:04:12;;;;;;;19.70;15.48;;;;;;;-3.23;85.37;101171.29;461356;112;923047;-70
2022/01/26 06:05:15;;;;;;;18.13;15.18;;;;;;;-3.23;85.29;101168.63;461081;112;922590;-70
2022/01/26 06:06:19;;;;;;;20.54;15.59;;;;;;;-3.23;85.24;101162.44;460496;112;922706;-69
2022/01/26 06:07:23;;;;;;;21.87;15.83;;;;;;;-3.22;85.35;101165.00;458310;114;923439;-70
2022/01/26 06:08:27;;;;;;;17.91;16.06;;;;;;;-3.21;85.33;101169.37;460158;112;930571;-71